sensor_id;sensor_type;location;lat;lon;timestamp;temperature;humidity
65036;DHT22;51603;49.300;8.880;2022-08-19T00:00:06;20.80;99.90
65036;DHT22;51603;49.300;8.880;2022-08-19T00:02:34;20.90;99.90
65036;DHT22;51603;49.300;8.880;2022-08-19T00:04:59;20.90;99.90
65036;DHT22;51603;49.300;8.880;2022-08-19T00:07:25;21.00;99.90
65036;DHT22;51603;49.300;8.880;2022-08-19T00:09:50;21.00;99.90
65036;DHT22;51603;49.300;8.880;2022-08-19T00:12:16;21.00;99.90
65036;DHT22;51603;49.300;8.880;2022-08-19T00:14:42;21.10;99.90
65036;DHT22;51603;49.300;8.880;2022-08-19T00:17:07;21.10;99.90
65036;DHT22;51603;49.300;8.880;2022-08-19T00:19:34;21.10;99.90
65036;DHT22;51603;49.300;8.880;2022-08-19T00:22:01;21.20;99.90
65036;DHT22;51603;49.300;8.880;2022-08-19T00:24:28;21.20;99.90
65036;DHT22;51603;49.300;8.880;2022-08-19T00:26:54;21.20;99.90
65036;DHT22;51603;49.300;8.880;2022-08-19T00:29:21;21.10;99.90
65036;DHT22;51603;49.300;8.880;2022-08-19T00:31:46;21.10;99.90
65036;DHT22;51603;49.300;8.880;2022-08-19T00:34:13;21.10;99.90
65036;DHT22;51603;49.300;8.880;2022-08-19T00:36:40;21.10;99.90
65036;DHT22;51603;49.300;8.880;2022-08-19T00:39:07;21.00;99.90
65036;DHT22;51603;49.300;8.880;2022-08-19T00:41:33;21.00;99.90
65036;DHT22;51603;49.300;8.880;2022-08-19T00:44:07;21.00;99.90
65036;DHT22;51603;49.300;8.880;2022-08-19T00:46:35;21.00;99.90
65036;DHT22;51603;49.300;8.880;2022-08-19T00:49:19;21.00;99.90
65036;DHT22;51603;49.300;8.880;2022-08-19T00:51:48;21.00;99.90
65036;DHT22;51603;49.300;8.880;2022-08-19T00:54:16;21.00;99.90
65036;DHT22;51603;49.300;8.880;2022-08-19T00:56:42;21.00;99.90
65036;DHT22;51603;49.300;8.880;2022-08-19T00:59:09;21.00;99.90
65036;DHT22;51603;49.300;8.880;2022-08-19T01:01:36;20.90;99.90
65036;DHT22;51603;49.300;8.880;2022-08-19T01:04:02;20.90;99.90
65036;DHT22;51603;49.300;8.880;2022-08-19T01:06:28;20.90;99.90
65036;DHT22;51603;49.300;8.880;2022-08-19T01:08:58;20.90;99.90
65036;DHT22;51603;49.300;8.880;2022-08-19T01:11:23;20.90;99.90
65036;DHT22;51603;49.300;8.880;2022-08-19T01:13:50;20.90;99.90
65036;DHT22;51603;49.300;8.880;2022-08-19T01:16:18;20.90;99.90
65036;DHT22;51603;49.300;8.880;2022-08-19T01:18:44;20.90;99.90
65036;DHT22;51603;49.300;8.880;2022-08-19T01:24:09;21.00;99.90
65036;DHT22;51603;49.300;8.880;2022-08-19T01:26:42;21.00;99.90
65036;DHT22;51603;49.300;8.880;2022-08-19T01:29:09;21.00;99.90
65036;DHT22;51603;49.300;8.880;2022-08-19T01:31:35;20.90;99.90
65036;DHT22;51603;49.300;8.880;2022-08-19T01:34:03;20.90;99.90
65036;DHT22;51603;49.300;8.880;2022-08-19T01:36:40;20.90;99.90
65036;DHT22;51603;49.300;8.880;2022-08-19T01:39:12;20.90;99.90
65036;DHT22;51603;49.300;8.880;2022-08-19T01:41:39;20.90;99.90
65036;DHT22;51603;49.300;8.880;2022-08-19T01:44:06;20.80;99.90
65036;DHT22;51603;49.300;8.880;2022-08-19T01:46:32;20.80;99.90
65036;DHT22;51603;49.300;8.880;2022-08-19T01:48:58;20.80;99.90
65036;DHT22;51603;49.300;8.880;2022-08-19T01:51:24;20.80;99.90
65036;DHT22;51603;49.300;8.880;2022-08-19T01:53:50;20.80;99.90
65036;DHT22;51603;49.300;8.880;2022-08-19T01:56:17;20.80;99.90
65036;DHT22;51603;49.300;8.880;2022-08-19T01:58:48;20.70;99.90
65036;DHT22;51603;49.300;8.880;2022-08-19T02:01:16;20.70;99.90
65036;DHT22;51603;49.300;8.880;2022-08-19T02:03:42;20.70;99.90
65036;DHT22;51603;49.300;8.880;2022-08-19T02:06:07;20.70;99.90
65036;DHT22;51603;49.300;8.880;2022-08-19T02:08:36;20.70;99.90
65036;DHT22;51603;49.300;8.880;2022-08-19T02:11:02;20.60;99.90
65036;DHT22;51603;49.300;8.880;2022-08-19T02:13:28;20.70;99.90
65036;DHT22;51603;49.300;8.880;2022-08-19T02:15:53;20.70;99.90
65036;DHT22;51603;49.300;8.880;2022-08-19T02:18:19;20.70;99.90
65036;DHT22;51603;49.300;8.880;2022-08-19T02:20:45;20.70;99.90
65036;DHT22;51603;49.300;8.880;2022-08-19T02:23:13;20.70;99.90
65036;DHT22;51603;49.300;8.880;2022-08-19T02:25:39;20.60;99.90
65036;DHT22;51603;49.300;8.880;2022-08-19T02:28:05;20.60;99.90
65036;DHT22;51603;49.300;8.880;2022-08-19T02:30:31;20.60;99.90
65036;DHT22;51603;49.300;8.880;2022-08-19T02:32:57;20.60;99.90
65036;DHT22;51603;49.300;8.880;2022-08-19T02:35:23;20.50;99.90
65036;DHT22;51603;49.300;8.880;2022-08-19T02:37:49;20.50;99.90
65036;DHT22;51603;49.300;8.880;2022-08-19T02:40:34;20.50;99.90
65036;DHT22;51603;49.300;8.880;2022-08-19T02:43:05;20.50;99.90
65036;DHT22;51603;49.300;8.880;2022-08-19T02:45:37;20.50;99.90
65036;DHT22;51603;49.300;8.880;2022-08-19T02:48:03;20.50;99.90
65036;DHT22;51603;49.300;8.880;2022-08-19T02:50:30;20.50;99.90
65036;DHT22;51603;49.300;8.880;2022-08-19T02:52:56;20.60;99.90
65036;DHT22;51603;49.300;8.880;2022-08-19T02:55:21;20.60;99.90
65036;DHT22;51603;49.300;8.880;2022-08-19T02:57:47;20.60;99.90
65036;DHT22;51603;49.300;8.880;2022-08-19T03:00:14;20.60;99.90
65036;DHT22;51603;49.300;8.880;2022-08-19T03:02:40;20.60;99.90
65036;DHT22;51603;49.300;8.880;2022-08-19T03:05:07;20.50;99.90
65036;DHT22;51603;49.300;8.880;2022-08-19T03:07:33;20.40;99.90
65036;DHT22;51603;49.300;8.880;2022-08-19T03:09:58;20.40;99.90
65036;DHT22;51603;49.300;8.880;2022-08-19T03:12:24;20.30;99.90
65036;DHT22;51603;49.300;8.880;2022-08-19T03:14:50;20.30;99.90
65036;DHT22;51603;49.300;8.880;2022-08-19T03:17:16;20.30;99.90
65036;DHT22;51603;49.300;8.880;2022-08-19T03:19:42;20.20;99.90
65036;DHT22;51603;49.300;8.880;2022-08-19T03:22:08;20.20;99.90
65036;DHT22;51603;49.300;8.880;2022-08-19T03:24:34;20.10;99.90
65036;DHT22;51603;49.300;8.880;2022-08-19T03:27:00;20.10;99.90
65036;DHT22;51603;49.300;8.880;2022-08-19T03:29:29;20.00;99.90
65036;DHT22;51603;49.300;8.880;2022-08-19T03:31:57;20.00;99.90
65036;DHT22;51603;49.300;8.880;2022-08-19T03:34:27;20.10;99.90
65036;DHT22;51603;49.300;8.880;2022-08-19T03:36:58;20.10;99.90
65036;DHT22;51603;49.300;8.880;2022-08-19T03:39:24;20.10;99.90
65036;DHT22;51603;49.300;8.880;2022-08-19T03:41:52;20.20;99.90
65036;DHT22;51603;49.300;8.880;2022-08-19T03:44:22;20.20;99.90
65036;DHT22;51603;49.300;8.880;2022-08-19T03:46:55;20.00;99.90
65036;DHT22;51603;49.300;8.880;2022-08-19T03:49:22;20.00;99.90
65036;DHT22;51603;49.300;8.880;2022-08-19T03:51:50;20.00;99.90
65036;DHT22;51603;49.300;8.880;2022-08-19T03:54:18;20.00;99.90
65036;DHT22;51603;49.300;8.880;2022-08-19T03:56:46;20.00;99.90
65036;DHT22;51603;49.300;8.880;2022-08-19T03:59:15;20.00;99.90
65036;DHT22;51603;49.300;8.880;2022-08-19T04:01:41;20.10;99.90
65036;DHT22;51603;49.300;8.880;2022-08-19T04:04:07;20.10;99.90
65036;DHT22;51603;49.300;8.880;2022-08-19T04:06:34;20.10;99.90
65036;DHT22;51603;49.300;8.880;2022-08-19T04:09:03;20.10;99.90
65036;DHT22;51603;49.300;8.880;2022-08-19T04:11:33;20.10;99.90
65036;DHT22;51603;49.300;8.880;2022-08-19T04:13:59;20.10;99.90
65036;DHT22;51603;49.300;8.880;2022-08-19T04:16:26;20.00;99.90
65036;DHT22;51603;49.300;8.880;2022-08-19T04:18:56;20.00;99.90
65036;DHT22;51603;49.300;8.880;2022-08-19T04:21:24;20.00;99.90
65036;DHT22;51603;49.300;8.880;2022-08-19T04:23:51;20.00;99.90
65036;DHT22;51603;49.300;8.880;2022-08-19T04:26:19;20.00;99.90
65036;DHT22;51603;49.300;8.880;2022-08-19T04:28:45;20.10;99.90
65036;DHT22;51603;49.300;8.880;2022-08-19T04:31:16;20.10;99.90
65036;DHT22;51603;49.300;8.880;2022-08-19T04:33:42;20.10;99.90
65036;DHT22;51603;49.300;8.880;2022-08-19T04:36:10;20.10;99.90
65036;DHT22;51603;49.300;8.880;2022-08-19T04:38:41;20.00;99.90
65036;DHT22;51603;49.300;8.880;2022-08-19T04:41:06;20.00;99.90
65036;DHT22;51603;49.300;8.880;2022-08-19T04:43:50;20.00;99.90
65036;DHT22;51603;49.300;8.880;2022-08-19T04:46:16;20.00;99.90
65036;DHT22;51603;49.300;8.880;2022-08-19T04:48:42;20.00;99.90
65036;DHT22;51603;49.300;8.880;2022-08-19T04:51:10;20.00;99.90
65036;DHT22;51603;49.300;8.880;2022-08-19T04:53:38;20.00;99.90
65036;DHT22;51603;49.300;8.880;2022-08-19T04:56:10;20.00;99.90
65036;DHT22;51603;49.300;8.880;2022-08-19T04:58:38;19.90;99.90
65036;DHT22;51603;49.300;8.880;2022-08-19T05:01:04;19.90;99.90
65036;DHT22;51603;49.300;8.880;2022-08-19T05:03:30;20.00;99.90
65036;DHT22;51603;49.300;8.880;2022-08-19T05:06:06;19.90;99.90
65036;DHT22;51603;49.300;8.880;2022-08-19T05:08:33;19.90;99.90
65036;DHT22;51603;49.300;8.880;2022-08-19T05:10:59;20.00;99.90
65036;DHT22;51603;49.300;8.880;2022-08-19T05:13:25;20.00;99.90
65036;DHT22;51603;49.300;8.880;2022-08-19T05:15:57;20.00;99.90
65036;DHT22;51603;49.300;8.880;2022-08-19T05:18:22;20.00;99.90
65036;DHT22;51603;49.300;8.880;2022-08-19T05:21:15;20.00;99.90
65036;DHT22;51603;49.300;8.880;2022-08-19T05:23:59;20.00;99.90
65036;DHT22;51603;49.300;8.880;2022-08-19T05:26:26;19.90;99.90
65036;DHT22;51603;49.300;8.880;2022-08-19T05:28:52;20.00;99.90
65036;DHT22;51603;49.300;8.880;2022-08-19T05:31:18;20.00;99.90
65036;DHT22;51603;49.300;8.880;2022-08-19T05:33:44;20.00;99.90
65036;DHT22;51603;49.300;8.880;2022-08-19T05:36:10;20.00;99.90
65036;DHT22;51603;49.300;8.880;2022-08-19T05:38:35;20.10;99.90
65036;DHT22;51603;49.300;8.880;2022-08-19T05:41:07;20.10;99.90
65036;DHT22;51603;49.300;8.880;2022-08-19T05:43:33;20.10;99.90
65036;DHT22;51603;49.300;8.880;2022-08-19T05:45:59;20.10;99.90
65036;DHT22;51603;49.300;8.880;2022-08-19T05:48:25;20.10;99.90
65036;DHT22;51603;49.300;8.880;2022-08-19T05:50:51;20.10;99.90
65036;DHT22;51603;49.300;8.880;2022-08-19T05:53:17;20.10;99.90
65036;DHT22;51603;49.300;8.880;2022-08-19T05:55:43;20.10;99.90
65036;DHT22;51603;49.300;8.880;2022-08-19T05:58:09;20.10;99.90
65036;DHT22;51603;49.300;8.880;2022-08-19T06:00:36;20.10;99.90
65036;DHT22;51603;49.300;8.880;2022-08-19T06:03:01;20.10;99.90
65036;DHT22;51603;49.300;8.880;2022-08-19T06:05:29;20.10;99.90
65036;DHT22;51603;49.300;8.880;2022-08-19T06:07:55;20.20;99.90
65036;DHT22;51603;49.300;8.880;2022-08-19T06:10:21;20.20;99.90
65036;DHT22;51603;49.300;8.880;2022-08-19T06:12:48;20.20;99.90
65036;DHT22;51603;49.300;8.880;2022-08-19T06:15:14;20.20;99.90
65036;DHT22;51603;49.300;8.880;2022-08-19T06:17:40;20.20;99.90
65036;DHT22;51603;49.300;8.880;2022-08-19T06:20:08;20.30;99.90
65036;DHT22;51603;49.300;8.880;2022-08-19T06:22:44;20.30;99.90
65036;DHT22;51603;49.300;8.880;2022-08-19T06:25:11;20.20;99.90
65036;DHT22;51603;49.300;8.880;2022-08-19T06:27:37;20.30;99.90
65036;DHT22;51603;49.300;8.880;2022-08-19T06:30:04;20.20;99.90
65036;DHT22;51603;49.300;8.880;2022-08-19T06:32:30;20.20;99.90
65036;DHT22;51603;49.300;8.880;2022-08-19T06:34:56;20.20;99.90
65036;DHT22;51603;49.300;8.880;2022-08-19T06:37:22;20.20;99.90
65036;DHT22;51603;49.300;8.880;2022-08-19T06:39:48;20.30;99.90
65036;DHT22;51603;49.300;8.880;2022-08-19T06:42:14;20.30;99.90
65036;DHT22;51603;49.300;8.880;2022-08-19T06:44:45;20.30;99.90
65036;DHT22;51603;49.300;8.880;2022-08-19T06:47:13;20.30;99.90
65036;DHT22;51603;49.300;8.880;2022-08-19T06:49:39;20.30;99.90
65036;DHT22;51603;49.300;8.880;2022-08-19T06:52:05;20.40;99.90
65036;DHT22;51603;49.300;8.880;2022-08-19T06:54:31;20.40;99.90
65036;DHT22;51603;49.300;8.880;2022-08-19T06:57:00;20.40;99.90
65036;DHT22;51603;49.300;8.880;2022-08-19T06:59:31;20.50;99.90
65036;DHT22;51603;49.300;8.880;2022-08-19T07:01:58;20.50;99.90
65036;DHT22;51603;49.300;8.880;2022-08-19T07:04:30;20.50;99.90
65036;DHT22;51603;49.300;8.880;2022-08-19T07:07:10;20.50;99.90
65036;DHT22;51603;49.300;8.880;2022-08-19T07:09:41;20.60;99.90
65036;DHT22;51603;49.300;8.880;2022-08-19T07:12:09;20.60;99.90
65036;DHT22;51603;49.300;8.880;2022-08-19T07:14:35;20.60;99.90
65036;DHT22;51603;49.300;8.880;2022-08-19T07:17:04;20.60;99.90
65036;DHT22;51603;49.300;8.880;2022-08-19T07:19:30;20.70;99.90
65036;DHT22;51603;49.300;8.880;2022-08-19T07:21:56;20.70;99.90
65036;DHT22;51603;49.300;8.880;2022-08-19T07:24:24;20.80;99.90
65036;DHT22;51603;49.300;8.880;2022-08-19T07:26:53;20.80;99.90
65036;DHT22;51603;49.300;8.880;2022-08-19T07:29:20;20.80;99.90
65036;DHT22;51603;49.300;8.880;2022-08-19T07:31:49;20.90;99.90
65036;DHT22;51603;49.300;8.880;2022-08-19T07:34:15;20.90;99.90
65036;DHT22;51603;49.300;8.880;2022-08-19T07:36:42;20.90;99.90
65036;DHT22;51603;49.300;8.880;2022-08-19T07:39:30;21.00;99.90
65036;DHT22;51603;49.300;8.880;2022-08-19T07:41:57;21.00;99.90
65036;DHT22;51603;49.300;8.880;2022-08-19T07:44:23;21.10;99.90
65036;DHT22;51603;49.300;8.880;2022-08-19T07:46:53;21.10;99.90
65036;DHT22;51603;49.300;8.880;2022-08-19T07:49:21;21.10;99.90
65036;DHT22;51603;49.300;8.880;2022-08-19T07:51:53;21.10;99.90
65036;DHT22;51603;49.300;8.880;2022-08-19T07:54:19;21.20;99.90
65036;DHT22;51603;49.300;8.880;2022-08-19T07:56:46;21.20;99.90
65036;DHT22;51603;49.300;8.880;2022-08-19T07:59:11;21.30;99.90
65036;DHT22;51603;49.300;8.880;2022-08-19T08:01:38;21.40;99.90
65036;DHT22;51603;49.300;8.880;2022-08-19T08:04:05;21.40;99.90
65036;DHT22;51603;49.300;8.880;2022-08-19T08:06:50;21.50;99.90
65036;DHT22;51603;49.300;8.880;2022-08-19T08:09:41;21.70;99.90
65036;DHT22;51603;49.300;8.880;2022-08-19T08:12:14;21.90;99.90
65036;DHT22;51603;49.300;8.880;2022-08-19T08:14:43;22.00;99.90
65036;DHT22;51603;49.300;8.880;2022-08-19T08:17:12;22.10;99.90
65036;DHT22;51603;49.300;8.880;2022-08-19T08:19:38;22.10;99.90
65036;DHT22;51603;49.300;8.880;2022-08-19T08:22:06;22.20;99.90
65036;DHT22;51603;49.300;8.880;2022-08-19T08:24:33;22.20;99.90
65036;DHT22;51603;49.300;8.880;2022-08-19T08:27:00;22.20;99.90
65036;DHT22;51603;49.300;8.880;2022-08-19T08:29:29;22.20;99.90
65036;DHT22;51603;49.300;8.880;2022-08-19T08:31:55;22.20;99.90
65036;DHT22;51603;49.300;8.880;2022-08-19T08:34:20;22.30;99.90
65036;DHT22;51603;49.300;8.880;2022-08-19T08:36:46;22.40;99.90
65036;DHT22;51603;49.300;8.880;2022-08-19T08:39:14;22.50;99.90
65036;DHT22;51603;49.300;8.880;2022-08-19T08:45:03;22.70;99.90
65036;DHT22;51603;49.300;8.880;2022-08-19T08:47:34;22.70;99.90
65036;DHT22;51603;49.300;8.880;2022-08-19T08:50:26;22.80;99.90
65036;DHT22;51603;49.300;8.880;2022-08-19T08:52:56;22.90;99.90
65036;DHT22;51603;49.300;8.880;2022-08-19T08:55:26;22.80;99.90
65036;DHT22;51603;49.300;8.880;2022-08-19T08:57:58;22.80;99.90
65036;DHT22;51603;49.300;8.880;2022-08-19T09:00:28;22.80;99.90
65036;DHT22;51603;49.300;8.880;2022-08-19T09:02:57;22.90;99.90
65036;DHT22;51603;49.300;8.880;2022-08-19T09:05:25;23.00;99.90
65036;DHT22;51603;49.300;8.880;2022-08-19T09:08:12;23.00;99.90
65036;DHT22;51603;49.300;8.880;2022-08-19T09:10:44;23.00;99.90
65036;DHT22;51603;49.300;8.880;2022-08-19T09:15:45;23.50;99.90
65036;DHT22;51603;49.300;8.880;2022-08-19T09:18:13;23.80;99.90
65036;DHT22;51603;49.300;8.880;2022-08-19T09:20:40;23.90;99.90
65036;DHT22;51603;49.300;8.880;2022-08-19T09:23:06;24.00;99.90
65036;DHT22;51603;49.300;8.880;2022-08-19T09:25:31;24.00;99.90
65036;DHT22;51603;49.300;8.880;2022-08-19T09:28:00;24.00;99.90
65036;DHT22;51603;49.300;8.880;2022-08-19T09:30:34;24.20;99.90
65036;DHT22;51603;49.300;8.880;2022-08-19T09:32:59;24.40;99.90
65036;DHT22;51603;49.300;8.880;2022-08-19T09:35:28;24.40;99.90
65036;DHT22;51603;49.300;8.880;2022-08-19T09:37:55;24.50;99.90
65036;DHT22;51603;49.300;8.880;2022-08-19T09:40:22;24.80;99.90
65036;DHT22;51603;49.300;8.880;2022-08-19T09:42:48;25.10;99.90
65036;DHT22;51603;49.300;8.880;2022-08-19T09:45:15;25.60;99.90
65036;DHT22;51603;49.300;8.880;2022-08-19T09:47:41;25.60;98.80
65036;DHT22;51603;49.300;8.880;2022-08-19T09:50:09;25.50;98.20
65036;DHT22;51603;49.300;8.880;2022-08-19T09:52:35;25.50;98.00
65036;DHT22;51603;49.300;8.880;2022-08-19T09:55:05;25.50;97.30
65036;DHT22;51603;49.300;8.880;2022-08-19T09:57:31;25.50;97.70
65036;DHT22;51603;49.300;8.880;2022-08-19T09:59:57;25.80;97.00
65036;DHT22;51603;49.300;8.880;2022-08-19T10:02:22;26.20;96.40
65036;DHT22;51603;49.300;8.880;2022-08-19T10:04:48;26.00;95.30
65036;DHT22;51603;49.300;8.880;2022-08-19T10:07:32;26.00;95.20
65036;DHT22;51603;49.300;8.880;2022-08-19T10:09:58;25.70;95.00
65036;DHT22;51603;49.300;8.880;2022-08-19T10:12:24;25.70;95.50
65036;DHT22;51603;49.300;8.880;2022-08-19T10:14:49;25.80;95.60
65036;DHT22;51603;49.300;8.880;2022-08-19T10:17:16;25.80;95.50
65036;DHT22;51603;49.300;8.880;2022-08-19T10:19:43;25.90;95.20
65036;DHT22;51603;49.300;8.880;2022-08-19T10:22:08;26.10;95.30
65036;DHT22;51603;49.300;8.880;2022-08-19T10:24:36;26.20;95.10
65036;DHT22;51603;49.300;8.880;2022-08-19T10:27:02;26.20;94.60
65036;DHT22;51603;49.300;8.880;2022-08-19T10:29:31;26.40;94.60
65036;DHT22;51603;49.300;8.880;2022-08-19T10:31:58;26.60;93.30
65036;DHT22;51603;49.300;8.880;2022-08-19T10:34:26;26.70;93.20
65036;DHT22;51603;49.300;8.880;2022-08-19T10:36:52;27.00;92.10
65036;DHT22;51603;49.300;8.880;2022-08-19T10:39:17;26.80;90.90
65036;DHT22;51603;49.300;8.880;2022-08-19T10:41:43;26.60;91.60
65036;DHT22;51603;49.300;8.880;2022-08-19T10:44:11;26.70;92.30
65036;DHT22;51603;49.300;8.880;2022-08-19T10:46:39;27.10;92.30
65036;DHT22;51603;49.300;8.880;2022-08-19T10:49:08;27.30;91.10
65036;DHT22;51603;49.300;8.880;2022-08-19T10:51:35;27.20;90.00
65036;DHT22;51603;49.300;8.880;2022-08-19T10:54:19;27.00;89.70
65036;DHT22;51603;49.300;8.880;2022-08-19T10:56:45;26.80;89.20
65036;DHT22;51603;49.300;8.880;2022-08-19T10:59:22;26.60;88.90
65036;DHT22;51603;49.300;8.880;2022-08-19T11:01:49;26.70;90.20
65036;DHT22;51603;49.300;8.880;2022-08-19T11:04:15;26.50;89.30
65036;DHT22;51603;49.300;8.880;2022-08-19T11:06:43;26.40;89.40
65036;DHT22;51603;49.300;8.880;2022-08-19T11:09:12;26.50;88.70
65036;DHT22;51603;49.300;8.880;2022-08-19T11:11:38;26.70;88.50
65036;DHT22;51603;49.300;8.880;2022-08-19T11:14:15;26.80;87.90
65036;DHT22;51603;49.300;8.880;2022-08-19T11:16:42;27.00;86.20
65036;DHT22;51603;49.300;8.880;2022-08-19T11:19:10;27.20;83.40
65036;DHT22;51603;49.300;8.880;2022-08-19T11:21:42;27.20;80.30
65036;DHT22;51603;49.300;8.880;2022-08-19T11:24:13;27.50;81.00
65036;DHT22;51603;49.300;8.880;2022-08-19T11:26:41;27.90;79.70
65036;DHT22;51603;49.300;8.880;2022-08-19T11:29:09;27.90;77.50
65036;DHT22;51603;49.300;8.880;2022-08-19T11:31:37;28.00;76.10
65036;DHT22;51603;49.300;8.880;2022-08-19T11:34:07;28.00;75.00
65036;DHT22;51603;49.300;8.880;2022-08-19T11:36:33;28.20;73.50
65036;DHT22;51603;49.300;8.880;2022-08-19T11:39:00;28.10;73.00
65036;DHT22;51603;49.300;8.880;2022-08-19T11:41:26;28.30;71.40
65036;DHT22;51603;49.300;8.880;2022-08-19T11:43:52;28.40;70.60
65036;DHT22;51603;49.300;8.880;2022-08-19T11:46:23;28.90;68.30
65036;DHT22;51603;49.300;8.880;2022-08-19T11:48:49;28.70;66.30
65036;DHT22;51603;49.300;8.880;2022-08-19T11:51:19;28.20;67.60
65036;DHT22;51603;49.300;8.880;2022-08-19T11:53:45;27.90;68.90
65036;DHT22;51603;49.300;8.880;2022-08-19T11:56:11;27.40;69.30
65036;DHT22;51603;49.300;8.880;2022-08-19T11:58:39;27.30;71.30
65036;DHT22;51603;49.300;8.880;2022-08-19T12:01:12;27.20;70.60
65036;DHT22;51603;49.300;8.880;2022-08-19T12:03:39;27.30;68.80
65036;DHT22;51603;49.300;8.880;2022-08-19T12:06:09;27.50;68.00
65036;DHT22;51603;49.300;8.880;2022-08-19T12:08:36;27.90;67.80
65036;DHT22;51603;49.300;8.880;2022-08-19T12:11:02;28.20;66.70
65036;DHT22;51603;49.300;8.880;2022-08-19T12:13:31;28.30;65.50
65036;DHT22;51603;49.300;8.880;2022-08-19T12:15:57;28.40;64.70
65036;DHT22;51603;49.300;8.880;2022-08-19T12:18:23;28.50;65.40
65036;DHT22;51603;49.300;8.880;2022-08-19T12:20:53;28.50;62.60
65036;DHT22;51603;49.300;8.880;2022-08-19T12:23:20;28.20;62.90
65036;DHT22;51603;49.300;8.880;2022-08-19T12:25:47;28.00;64.50
65036;DHT22;51603;49.300;8.880;2022-08-19T12:28:20;27.90;64.50
65036;DHT22;51603;49.300;8.880;2022-08-19T12:30:47;27.90;64.30
65036;DHT22;51603;49.300;8.880;2022-08-19T12:33:12;28.00;64.60
65036;DHT22;51603;49.300;8.880;2022-08-19T12:35:43;27.80;64.70
65036;DHT22;51603;49.300;8.880;2022-08-19T12:38:12;27.70;66.00
65036;DHT22;51603;49.300;8.880;2022-08-19T12:40:38;28.00;64.60
65036;DHT22;51603;49.300;8.880;2022-08-19T12:43:08;27.90;62.40
65036;DHT22;51603;49.300;8.880;2022-08-19T12:45:34;28.00;64.30
65036;DHT22;51603;49.300;8.880;2022-08-19T12:48:00;28.00;63.70
65036;DHT22;51603;49.300;8.880;2022-08-19T12:50:26;28.00;61.40
65036;DHT22;51603;49.300;8.880;2022-08-19T12:52:51;27.80;60.90
65036;DHT22;51603;49.300;8.880;2022-08-19T12:55:17;27.80;61.50
65036;DHT22;51603;49.300;8.880;2022-08-19T12:57:44;27.80;62.00
65036;DHT22;51603;49.300;8.880;2022-08-19T13:00:14;27.80;61.30
65036;DHT22;51603;49.300;8.880;2022-08-19T13:02:42;27.90;60.30
65036;DHT22;51603;49.300;8.880;2022-08-19T13:05:11;27.90;60.00
65036;DHT22;51603;49.300;8.880;2022-08-19T13:07:39;28.00;60.40
65036;DHT22;51603;49.300;8.880;2022-08-19T13:10:07;28.10;61.40
65036;DHT22;51603;49.300;8.880;2022-08-19T13:12:33;28.20;59.80
65036;DHT22;51603;49.300;8.880;2022-08-19T13:14:58;28.40;59.20
65036;DHT22;51603;49.300;8.880;2022-08-19T13:17:24;28.50;58.80
65036;DHT22;51603;49.300;8.880;2022-08-19T13:19:49;28.30;58.60
65036;DHT22;51603;49.300;8.880;2022-08-19T13:22:16;28.50;59.60
65036;DHT22;51603;49.300;8.880;2022-08-19T13:24:41;28.60;59.50
65036;DHT22;51603;49.300;8.880;2022-08-19T13:27:07;28.70;58.90
65036;DHT22;51603;49.300;8.880;2022-08-19T13:29:33;28.80;59.00
65036;DHT22;51603;49.300;8.880;2022-08-19T13:32:17;28.80;57.90
65036;DHT22;51603;49.300;8.880;2022-08-19T13:35:03;29.00;56.70
65036;DHT22;51603;49.300;8.880;2022-08-19T13:37:28;29.10;55.60
65036;DHT22;51603;49.300;8.880;2022-08-19T13:40:27;29.10;54.90
65036;DHT22;51603;49.300;8.880;2022-08-19T13:42:54;29.10;54.10
65036;DHT22;51603;49.300;8.880;2022-08-19T13:45:22;29.10;53.70
65036;DHT22;51603;49.300;8.880;2022-08-19T13:47:50;29.10;54.10
65036;DHT22;51603;49.300;8.880;2022-08-19T13:50:19;29.40;54.60
65036;DHT22;51603;49.300;8.880;2022-08-19T13:52:45;29.50;53.50
65036;DHT22;51603;49.300;8.880;2022-08-19T13:55:13;29.30;53.70
65036;DHT22;51603;49.300;8.880;2022-08-19T13:57:38;29.00;53.80
65036;DHT22;51603;49.300;8.880;2022-08-19T14:00:07;29.00;53.00
65036;DHT22;51603;49.300;8.880;2022-08-19T14:02:35;29.00;52.50
65036;DHT22;51603;49.300;8.880;2022-08-19T14:05:03;29.00;52.80
65036;DHT22;51603;49.300;8.880;2022-08-19T14:07:28;29.00;51.80
65036;DHT22;51603;49.300;8.880;2022-08-19T14:09:54;28.90;52.90
65036;DHT22;51603;49.300;8.880;2022-08-19T14:12:20;28.90;53.00
65036;DHT22;51603;49.300;8.880;2022-08-19T14:14:46;28.90;52.50
65036;DHT22;51603;49.300;8.880;2022-08-19T14:17:11;28.90;52.10
65036;DHT22;51603;49.300;8.880;2022-08-19T14:19:37;28.70;52.00
65036;DHT22;51603;49.300;8.880;2022-08-19T14:22:02;28.60;51.70
65036;DHT22;51603;49.300;8.880;2022-08-19T14:24:28;28.30;52.50
65036;DHT22;51603;49.300;8.880;2022-08-19T14:26:54;28.30;52.90
65036;DHT22;51603;49.300;8.880;2022-08-19T14:29:19;28.30;52.90
65036;DHT22;51603;49.300;8.880;2022-08-19T14:31:45;28.40;51.80
65036;DHT22;51603;49.300;8.880;2022-08-19T14:34:10;28.50;50.60
65036;DHT22;51603;49.300;8.880;2022-08-19T14:36:37;28.50;49.90
65036;DHT22;51603;49.300;8.880;2022-08-19T14:39:04;28.70;50.10
65036;DHT22;51603;49.300;8.880;2022-08-19T14:41:30;28.80;49.80
65036;DHT22;51603;49.300;8.880;2022-08-19T14:43:56;28.90;49.00
65036;DHT22;51603;49.300;8.880;2022-08-19T14:46:24;29.10;48.80
65036;DHT22;51603;49.300;8.880;2022-08-19T14:48:51;29.10;48.60
65036;DHT22;51603;49.300;8.880;2022-08-19T14:51:18;29.00;49.00
65036;DHT22;51603;49.300;8.880;2022-08-19T14:53:44;29.00;49.40
65036;DHT22;51603;49.300;8.880;2022-08-19T14:56:15;28.80;49.00
65036;DHT22;51603;49.300;8.880;2022-08-19T14:58:43;28.70;48.30
65036;DHT22;51603;49.300;8.880;2022-08-19T15:01:10;28.70;48.50
65036;DHT22;51603;49.300;8.880;2022-08-19T15:03:35;28.50;48.70
65036;DHT22;51603;49.300;8.880;2022-08-19T15:06:03;28.50;49.60
65036;DHT22;51603;49.300;8.880;2022-08-19T15:08:31;28.40;49.20
65036;DHT22;51603;49.300;8.880;2022-08-19T15:10:58;28.20;49.50
65036;DHT22;51603;49.300;8.880;2022-08-19T15:13:26;28.10;49.60
65036;DHT22;51603;49.300;8.880;2022-08-19T15:15:52;27.90;50.20
65036;DHT22;51603;49.300;8.880;2022-08-19T15:18:18;27.90;50.70
65036;DHT22;51603;49.300;8.880;2022-08-19T15:20:46;27.90;51.60
65036;DHT22;51603;49.300;8.880;2022-08-19T15:23:15;27.90;51.30
65036;DHT22;51603;49.300;8.880;2022-08-19T15:25:41;27.90;51.20
65036;DHT22;51603;49.300;8.880;2022-08-19T15:28:08;27.80;51.60
65036;DHT22;51603;49.300;8.880;2022-08-19T15:30:37;27.80;52.10
65036;DHT22;51603;49.300;8.880;2022-08-19T15:33:03;27.80;52.60
65036;DHT22;51603;49.300;8.880;2022-08-19T15:35:29;27.70;52.40
65036;DHT22;51603;49.300;8.880;2022-08-19T15:37:55;27.70;52.70
65036;DHT22;51603;49.300;8.880;2022-08-19T15:40:22;27.70;51.90
65036;DHT22;51603;49.300;8.880;2022-08-19T15:42:48;27.60;50.80